Time;durP1;ratioP1;P1;durP2;ratioP2;P2;SDS_P1;SDS_P2;PMS_P1;PMS_P2;Temp;Humidity;BMP_temperature;BMP_pressure;BME280_temperature;BME280_humidity;BME280_pressure;Samples;Min_cycle;Max_cycle;Signal;HPM_P1;HPM_P2
2022/04/30 00:00:58;;;;;;;3.22;2.58;;;12.30;99.90;;;;;;4938930;29;20027;-81
2022/04/30 00:03:28;;;;;;;4.80;2.65;;;12.30;99.90;;;;;;4938911;29;20034;-83
2022/04/30 00:05:55;;;;;;;2.22;2.03;;;12.30;99.90;;;;;;4940962;29;20031;-83
2022/04/30 00:08:20;;;;;;;8.07;2.78;;;12.30;99.90;;;;;;4941421;29;20079;-81
2022/04/30 00:10:50;;;;;;;3.53;2.35;;;12.30;99.90;;;;;;4944431;29;20047;-82
2022/04/30 00:13:16;;;;;;;7.55;2.58;;;12.30;99.90;;;;;;4942805;29;20055;-84
2022/04/30 00:15:42;;;;;;;5.63;2.33;;;12.30;99.90;;;;;;4945543;29;20530;-82
2022/04/30 00:18:10;;;;;;;4.15;2.78;;;12.30;99.90;;;;;;4944824;29;20055;-82
2022/04/30 00:20:37;;;;;;;4.13;2.10;;;12.30;99.90;;;;;;4949648;29;20119;-82
2022/04/30 00:23:19;;;;;;;2.88;2.30;;;12.30;99.90;;;;;;4945828;29;20082;-83
2022/04/30 00:25:52;;;;;;;3.13;2.13;;;12.20;99.90;;;;;;4945615;29;20481;-79
2022/04/30 00:28:19;;;;;;;3.47;2.17;;;12.30;99.90;;;;;;4944438;29;20028;-81
2022/04/30 00:30:45;;;;;;;2.42;2.03;;;12.30;99.90;;;;;;4960704;29;20035;-82
2022/04/30 00:33:12;;;;;;;5.30;2.25;;;12.30;99.90;;;;;;4976497;28;20443;-83
2022/04/30 00:35:38;;;;;;;3.67;2.30;;;12.30;99.90;;;;;;4984101;28;20031;-81
2022/04/30 00:38:04;;;;;;;4.15;2.70;;;12.30;99.90;;;;;;4984500;28;20035;-80
2022/04/30 00:40:31;;;;;;;9.50;2.50;;;12.40;99.90;;;;;;4984305;28;20026;-83
2022/04/30 00:42:57;;;;;;;2.38;2.17;;;12.40;99.90;;;;;;4983234;28;20546;-82
2022/04/30 00:45:22;;;;;;;5.57;2.25;;;12.40;99.90;;;;;;4982381;28;20058;-82
2022/04/30 00:47:48;;;;;;;5.63;2.40;;;12.40;99.90;;;;;;4984177;28;20085;-83
2022/04/30 00:50:16;;;;;;;4.65;2.03;;;12.30;99.90;;;;;;4983638;28;20050;-82
2022/04/30 00:52:43;;;;;;;2.33;2.13;;;12.20;99.90;;;;;;4982415;28;20380;-82
2022/04/30 00:55:11;;;;;;;4.30;2.83;;;12.10;99.90;;;;;;4982249;28;20060;-83
2022/04/30 00:57:41;;;;;;;4.07;2.88;;;12.10;99.90;;;;;;4982340;28;20062;-83
2022/04/30 01:00:07;;;;;;;2.72;2.40;;;12.00;99.90;;;;;;4982593;28;20105;-83
2022/04/30 01:02:33;;;;;;;2.72;2.40;;;12.00;99.90;;;;;;4984773;28;20101;-80
2022/04/30 01:05:00;;;;;;;6.10;2.58;;;12.00;99.90;;;;;;4985433;28;20479;-83
2022/04/30 01:07:27;;;;;;;5.53;2.45;;;12.00;99.90;;;;;;4984431;28;20050;-83
2022/04/30 01:09:54;;;;;;;5.20;2.35;;;12.00;99.90;;;;;;4985752;28;20077;-83
2022/04/30 01:12:20;;;;;;;3.63;2.28;;;12.00;99.90;;;;;;4984601;28;20053;-80
2022/04/30 01:14:47;;;;;;;3.60;2.47;;;11.90;99.90;;;;;;4986232;28;20033;-82
2022/04/30 01:17:13;;;;;;;4.30;2.63;;;11.90;99.90;;;;;;4987674;28;20035;-82
2022/04/30 01:19:42;;;;;;;3.70;2.00;;;11.90;99.90;;;;;;4988157;28;20043;-83
2022/04/30 01:22:20;;;;;;;3.25;2.42;;;11.90;99.90;;;;;;4982921;28;20031;-81
2022/04/30 01:24:47;;;;;;;3.92;2.10;;;11.90;99.90;;;;;;4979052;28;20054;-82
2022/04/30 01:27:14;;;;;;;2.63;2.42;;;11.90;99.90;;;;;;4987493;28;20027;-83
2022/04/30 01:29:40;;;;;;;3.80;2.38;;;11.90;99.90;;;;;;4982348;28;20023;-78
2022/04/30 01:37:37;;;;;;;9.57;2.83;;;11.90;99.90;;;;;;4956790;29;20423;-81
2022/04/30 01:40:08;;;;;;;3.05;2.30;;;11.80;99.90;;;;;;4960659;29;20023;-81
2022/04/30 01:42:40;;;;;;;2.70;2.50;;;11.70;99.90;;;;;;4954501;29;20106;-81
2022/04/30 01:45:06;;;;;;;3.75;2.78;;;11.70;99.90;;;;;;4955031;29;20027;-80
2022/04/30 01:47:35;;;;;;;2.92;2.70;;;11.60;99.90;;;;;;4953802;29;20515;-81
2022/04/30 01:50:01;;;;;;;3.42;2.70;;;11.50;99.90;;;;;;4955662;29;20134;-83
2022/04/30 01:52:27;;;;;;;2.90;2.42;;;11.40;99.90;;;;;;4956676;28;20051;-80
2022/04/30 01:54:53;;;;;;;3.28;2.60;;;11.40;99.90;;;;;;4959489;29;20492;-81
2022/04/30 01:57:25;;;;;;;3.78;2.67;;;11.30;99.90;;;;;;4954792;29;20090;-80
2022/04/30 01:59:55;;;;;;;6.22;3.03;;;11.20;99.90;;;;;;4953551;29;20058;-81
2022/04/30 02:02:24;;;;;;;7.68;2.97;;;11.10;99.90;;;;;;4952689;28;20254;-80
2022/04/30 02:04:54;;;;;;;4.63;3.05;;;11.00;99.90;;;;;;4953336;29;20031;-81
2022/04/30 02:07:20;;;;;;;3.50;3.10;;;10.90;99.90;;;;;;4952709;29;20082;-80
2022/04/30 02:09:51;;;;;;;3.75;2.83;;;10.80;99.90;;;;;;4952272;28;20031;-80
2022/04/30 02:12:17;;;;;;;4.18;2.85;;;10.80;99.90;;;;;;4952090;29;20057;-79
2022/04/30 02:14:48;;;;;;;4.75;3.15;;;10.90;99.90;;;;;;4950143;29;20338;-79
2022/04/30 02:17:15;;;;;;;8.43;3.63;;;10.80;99.90;;;;;;4951368;29;20102;-80
2022/04/30 02:22:30;;;;;;;5.00;3.45;;;10.70;99.90;;;;;;4952237;29;20038;-79
2022/04/30 02:24:57;;;;;;;7.18;3.58;;;10.60;99.90;;;;;;4951985;29;20027;-79
2022/04/30 02:27:24;;;;;;;4.38;3.22;;;10.60;99.90;;;;;;4952713;28;20110;-80
2022/04/30 02:29:49;;;;;;;4.97;3.25;;;10.60;99.90;;;;;;4952494;29;20027;-81
2022/04/30 02:32:15;;;;;;;4.15;3.60;;;10.70;99.90;;;;;;4960819;28;20019;-81
2022/04/30 02:34:41;;;;;;;4.82;3.22;;;10.70;99.90;;;;;;4973074;28;20373;-80
2022/04/30 02:37:07;;;;;;;4.57;3.13;;;10.60;99.90;;;;;;4972654;28;20041;-81
2022/04/30 02:39:33;;;;;;;4.38;3.47;;;10.60;99.90;;;;;;4972183;28;20081;-80
2022/04/30 02:41:58;;;;;;;3.67;3.33;;;10.50;99.90;;;;;;4958547;28;20039;-81
2022/04/30 02:44:26;;;;;;;5.65;3.35;;;10.50;99.90;;;;;;4954773;29;20023;-80
2022/04/30 02:46:55;;;;;;;5.43;2.95;;;10.50;99.90;;;;;;4968169;28;20435;-82
2022/04/30 02:49:21;;;;;;;4.60;3.27;;;10.40;99.90;;;;;;4976041;28;20046;-79
2022/04/30 02:51:47;;;;;;;6.47;3.33;;;10.50;99.90;;;;;;4974854;28;20051;-80
2022/04/30 02:54:13;;;;;;;3.88;3.50;;;10.50;99.90;;;;;;4974784;28;20023;-80
2022/04/30 02:56:39;;;;;;;4.10;3.10;;;10.50;99.90;;;;;;4975941;28;20049;-81
2022/04/30 03:01:49;;;;;;;3.70;3.35;;;10.50;99.90;;;;;;4960567;28;20050;-82
2022/04/30 03:04:14;;;;;;;4.10;3.70;;;10.40;99.90;;;;;;4955699;29;20023;-78
2022/04/30 03:06:40;;;;;;;4.40;3.47;;;10.40;99.90;;;;;;4954743;29;20028;-81
2022/04/30 03:09:07;;;;;;;7.25;3.38;;;10.40;99.90;;;;;;4952713;29;20039;-82
2022/04/30 03:11:32;;;;;;;4.88;3.70;;;10.40;99.90;;;;;;4952076;29;20452;-80
2022/04/30 03:13:58;;;;;;;4.88;4.00;;;10.40;99.90;;;;;;4951707;29;20043;-81
2022/04/30 03:21:53;;;;;;;4.80;3.80;;;10.40;99.90;;;;;;4951640;29;20177;-80
2022/04/30 03:24:19;;;;;;;4.38;3.50;;;10.50;99.90;;;;;;4949597;29;20062;-81
2022/04/30 03:26:48;;;;;;;5.80;3.38;;;10.50;99.90;;;;;;4953174;29;20027;-78
2022/04/30 03:29:15;;;;;;;4.68;3.67;;;10.40;99.90;;;;;;4953480;29;20031;-81
2022/04/30 03:31:42;;;;;;;9.02;3.70;;;10.30;99.90;;;;;;4955850;28;20114;-80
2022/04/30 03:34:12;;;;;;;8.10;3.95;;;10.20;99.90;;;;;;4973508;28;20029;-79
2022/04/30 03:36:38;;;;;;;4.60;3.60;;;10.10;99.90;;;;;;4969710;28;20035;-80
2022/04/30 03:39:04;;;;;;;7.65;4.00;;;10.00;99.90;;;;;;4970353;28;20033;-78
2022/04/30 03:41:30;;;;;;;3.58;3.28;;;9.80;99.90;;;;;;4969510;28;20123;-79
2022/04/30 03:43:56;;;;;;;5.07;3.55;;;9.70;99.90;;;;;;4969323;28;20030;-79
2022/04/30 03:46:21;;;;;;;4.97;3.53;;;9.60;99.90;;;;;;4971458;28;20037;-78
2022/04/30 03:48:53;;;;;;;4.13;3.28;;;9.40;99.90;;;;;;4967748;28;20511;-79
2022/04/30 03:51:21;;;;;;;6.53;3.47;;;9.40;99.90;;;;;;4967905;28;20059;-79
2022/04/30 03:53:47;;;;;;;6.07;3.72;;;9.30;99.90;;;;;;4967488;28;20062;-80
2022/04/30 03:56:13;;;;;;;4.57;3.20;;;9.20;99.90;;;;;;4967761;28;20073;-79
2022/04/30 03:58:39;;;;;;;4.47;3.53;;;9.10;99.90;;;;;;4967215;28;20058;-79
2022/04/30 04:01:05;;;;;;;4.20;3.83;;;9.00;99.90;;;;;;4968919;28;20062;-80
2022/04/30 04:03:31;;;;;;;4.20;3.80;;;9.00;99.90;;;;;;4966980;28;20033;-78
2022/04/30 04:05:58;;;;;;;4.28;3.85;;;9.00;99.90;;;;;;4968191;28;20038;-79
2022/04/30 04:08:25;;;;;;;5.53;4.45;;;9.10;99.90;;;;;;4967521;28;20049;-78
2022/04/30 04:10:50;;;;;;;5.00;3.75;;;9.10;99.90;;;;;;4967817;28;20066;-79
2022/04/30 04:18:45;;;;;;;5.22;3.97;;;8.90;99.90;;;;;;4969214;28;20090;-82
2022/04/30 04:21:11;;;;;;;7.05;5.00;;;8.80;99.90;;;;;;4981887;28;20026;-80
2022/04/30 04:26:21;;;;;;;4.82;3.85;;;8.60;99.90;;;;;;4981349;28;20349;-79
2022/04/30 04:28:47;;;;;;;5.97;3.40;;;8.50;99.90;;;;;;4982319;28;20023;-79
2022/04/30 04:31:13;;;;;;;11.25;4.55;;;8.40;99.90;;;;;;4979942;28;20094;-80
2022/04/30 04:33:39;;;;;;;4.68;3.65;;;8.40;99.90;;;;;;4939890;29;20051;-79
2022/04/30 04:36:05;;;;;;;10.25;4.40;;;8.40;99.90;;;;;;4940404;29;20043;-80
2022/04/30 04:38:31;;;;;;;6.93;4.53;;;8.40;99.90;;;;;;4939381;29;20031;-80
2022/04/30 04:40:57;;;;;;;5.78;3.55;;;8.50;99.90;;;;;;4939647;29;20300;-80
2022/04/30 04:43:22;;;;;;;4.88;3.78;;;8.60;99.90;;;;;;4940957;29;20036;-81
2022/04/30 04:45:48;;;;;;;5.40;3.92;;;8.70;99.90;;;;;;4940751;29;20686;-81
2022/04/30 04:48:14;;;;;;;4.47;3.92;;;8.60;99.90;;;;;;4940850;29;20028;-80
2022/04/30 04:50:41;;;;;;;10.60;4.00;;;8.50;99.90;;;;;;4939291;29;20040;-80
2022/04/30 04:53:07;;;;;;;6.28;3.95;;;8.40;99.90;;;;;;4941162;29;20159;-78
2022/04/30 04:55:32;;;;;;;5.57;3.97;;;8.30;99.90;;;;;;4945709;29;20035;-79
2022/04/30 04:57:58;;;;;;;9.68;4.57;;;8.30;99.90;;;;;;4938143;29;20078;-81
2022/04/30 05:00:24;;;;;;;9.30;4.70;;;8.40;99.90;;;;;;4940895;29;20055;-78
2022/04/30 05:02:53;;;;;;;9.77;4.60;;;8.50;99.90;;;;;;4940870;29;20082;-81
2022/04/30 05:05:18;;;;;;;7.07;4.00;;;8.60;99.90;;;;;;4943248;29;20039;-77
2022/04/30 05:07:44;;;;;;;6.15;3.80;;;8.50;99.90;;;;;;4942574;29;20039;-80
2022/04/30 05:10:10;;;;;;;5.90;3.72;;;8.40;99.90;;;;;;4942916;29;20111;-80
2022/04/30 05:12:36;;;;;;;8.93;5.50;;;8.40;99.90;;;;;;4935137;29;20052;-80
2022/04/30 05:15:01;;;;;;;4.88;3.92;;;8.40;99.90;;;;;;4934092;29;20019;-81
2022/04/30 05:17:27;;;;;;;5.88;3.67;;;8.40;99.90;;;;;;4933554;29;20043;-77
2022/04/30 05:19:53;;;;;;;9.52;4.20;;;8.50;99.90;;;;;;4934761;29;20032;-78
2022/04/30 05:22:18;;;;;;;4.53;3.72;;;8.60;99.90;;;;;;4935713;29;20047;-77
2022/04/30 05:24:45;;;;;;;3.80;3.50;;;8.70;99.90;;;;;;4932844;29;20536;-80
2022/04/30 05:27:11;;;;;;;6.28;4.47;;;8.90;99.90;;;;;;4944038;28;20039;-80
2022/04/30 05:29:37;;;;;;;7.22;3.85;;;9.10;99.90;;;;;;4957194;28;20365;-77
2022/04/30 05:32:03;;;;;;;3.75;3.45;;;9.20;99.90;;;;;;4972839;28;20022;-78
2022/04/30 05:34:29;;;;;;;5.00;3.92;;;9.40;99.90;;;;;;4970136;28;20065;-80
2022/04/30 05:36:55;;;;;;;7.22;3.63;;;9.60;99.90;;;;;;4971623;28;20066;-78
2022/04/30 05:39:21;;;;;;;6.07;4.38;;;9.70;99.90;;;;;;4972025;28;20057;-77
2022/04/30 05:41:47;;;;;;;4.53;3.72;;;9.90;99.90;;;;;;4973318;28;20380;-78
2022/04/30 05:44:13;;;;;;;8.65;3.92;;;9.80;99.90;;;;;;4974744;28;20023;-76
2022/04/30 05:46:38;;;;;;;5.80;3.65;;;10.20;99.90;;;;;;4975052;28;20054;-77
2022/04/30 05:49:04;;;;;;;10.82;4.20;;;10.40;99.90;;;;;;4973429;28;20047;-75
2022/04/30 05:51:30;;;;;;;4.75;3.55;;;10.60;99.90;;;;;;4973929;28;20043;-77
2022/04/30 05:53:57;;;;;;;7.60;3.75;;;10.70;99.90;;;;;;4978432;28;20031;-75
2022/04/30 05:56:23;;;;;;;9.60;3.75;;;10.80;99.90;;;;;;4974527;28;20052;-76
2022/04/30 05:58:48;;;;;;;7.13;4.30;;;10.90;99.90;;;;;;4975444;28;20058;-76
2022/04/30 06:01:14;;;;;;;6.47;3.80;;;11.10;99.90;;;;;;4974317;28;20055;-78
2022/04/30 06:03:40;;;;;;;7.88;3.38;;;11.10;99.90;;;;;;4976693;28;20078;-80
2022/04/30 06:06:07;;;;;;;7.28;4.00;;;11.20;99.90;;;;;;4974500;28;20113;-79
2022/04/30 06:08:33;;;;;;;4.93;3.88;;;11.30;99.90;;;;;;4976563;28;20053;-80
2022/04/30 06:11:00;;;;;;;6.25;4.03;;;11.40;99.90;;;;;;4973454;28;20031;-76
2022/04/30 06:13:26;;;;;;;4.45;3.83;;;11.60;99.90;;;;;;4977478;28;20023;-80
2022/04/30 06:15:51;;;;;;;4.68;4.18;;;11.70;99.90;;;;;;4981245;28;20083;-75
2022/04/30 06:18:17;;;;;;;5.45;3.50;;;11.80;99.90;;;;;;4976291;28;20523;-77
2022/04/30 06:20:43;;;;;;;7.65;4.35;;;11.90;99.90;;;;;;4978904;28;20027;-76
2022/04/30 06:23:09;;;;;;;5.45;3.65;;;12.00;99.90;;;;;;4986134;28;20031;-76
2022/04/30 06:25:35;;;;;;;6.35;4.20;;;12.20;99.90;;;;;;4989317;28;20243;-74
2022/04/30 06:28:01;;;;;;;4.25;3.63;;;12.40;99.90;;;;;;4961009;28;20011;-76
2022/04/30 06:30:27;;;;;;;6.68;4.10;;;12.50;99.90;;;;;;4943170;29;20040;-77
2022/04/30 06:32:53;;;;;;;6.63;4.10;;;12.50;99.90;;;;;;4939815;29;20059;-75
2022/04/30 06:35:19;;;;;;;6.85;4.80;;;12.50;99.90;;;;;;4940488;29;20079;-81
2022/04/30 06:37:44;;;;;;;5.55;3.80;;;12.70;99.90;;;;;;4946326;29;20370;-76
2022/04/30 06:40:12;;;;;;;6.50;4.00;;;13.00;99.90;;;;;;4948903;29;20588;-76
2022/04/30 06:42:47;;;;;;;4.40;3.92;;;13.10;99.90;;;;;;4952111;29;20024;-76
2022/04/30 06:45:13;;;;;;;7.82;3.97;;;13.20;99.90;;;;;;4942361;29;20043;-79
2022/04/30 06:47:40;;;;;;;7.63;4.30;;;13.30;99.90;;;;;;4942533;29;20032;-79
2022/04/30 06:50:07;;;;;;;8.63;4.65;;;13.50;99.90;;;;;;4944999;29;20050;-80
2022/04/30 06:52:33;;;;;;;5.35;4.00;;;13.40;99.90;;;;;;4941264;29;20031;-76
2022/04/30 06:57:47;;;;;;;6.13;4.30;;;14.20;99.90;;;;;;4942028;29;20127;-79
2022/04/30 07:03:08;;;;;;;6.63;4.25;;;15.40;99.90;;;;;;4953023;29;20050;-77
2022/04/30 07:05:36;;;;;;;6.88;4.90;;;14.50;99.90;;;;;;4952893;29;20079;-82
2022/04/30 07:08:02;;;;;;;7.65;5.28;;;14.70;99.90;;;;;;4951251;29;20481;-75
2022/04/30 07:10:27;;;;;;;7.00;5.13;;;14.60;99.90;;;;;;4942441;29;20061;-76
2022/04/30 07:12:53;;;;;;;5.07;4.55;;;15.30;99.90;;;;;;4938405;29;20053;-75
2022/04/30 07:15:22;;;;;;;6.80;4.90;;;15.30;99.90;;;;;;4942902;29;20031;-75
2022/04/30 07:17:47;;;;;;;6.50;4.78;;;15.70;99.90;;;;;;4951984;29;20058;-76
2022/04/30 07:20:13;;;;;;;8.60;4.72;;;15.60;99.90;;;;;;4952793;29;20031;-76
2022/04/30 07:22:39;;;;;;;8.88;5.57;;;15.00;99.90;;;;;;4952183;29;20034;-76
2022/04/30 07:25:06;;;;;;;8.90;5.50;;;14.80;99.90;;;;;;4952279;29;20075;-78
2022/04/30 07:27:32;;;;;;;6.82;5.70;;;14.60;99.90;;;;;;4960385;29;20016;-78
2022/04/30 07:29:57;;;;;;;7.85;5.63;;;14.50;99.90;;;;;;4953574;28;20087;-75
2022/04/30 07:32:23;;;;;;;7.88;6.13;;;14.60;99.90;;;;;;4946484;28;20502;-75
2022/04/30 07:34:48;;;;;;;6.63;5.07;;;14.80;99.90;;;;;;4943143;29;20126;-75
2022/04/30 07:37:14;;;;;;;10.30;5.53;;;15.00;99.90;;;;;;4949868;29;20043;-75
2022/04/30 07:39:40;;;;;;;8.50;5.72;;;15.20;99.90;;;;;;4947718;29;20019;-75
2022/04/30 07:42:06;;;;;;;9.52;6.65;;;15.30;99.90;;;;;;4957991;29;20031;-76
2022/04/30 07:44:31;;;;;;;9.93;5.50;;;14.70;99.90;;;;;;4953139;29;20035;-75
2022/04/30 07:46:58;;;;;;;7.60;5.93;;;14.70;99.90;;;;;;4940725;29;20040;-75
2022/04/30 07:49:25;;;;;;;9.77;6.15;;;14.70;99.90;;;;;;4938758;29;20054;-75
2022/04/30 07:51:55;;;;;;;9.70;6.55;;;15.00;99.90;;;;;;4949136;28;20027;-76
2022/04/30 07:54:24;;;;;;;12.80;6.68;;;14.70;99.90;;;;;;4971022;29;20032;-75
2022/04/30 07:56:59;;;;;;;12.27;6.57;;;14.60;99.90;;;;;;4964008;29;20074;-75
2022/04/30 07:59:25;;;;;;;9.70;6.60;;;15.00;99.90;;;;;;4951510;29;20055;-75
2022/04/30 08:01:51;;;;;;;7.50;5.80;;;15.40;99.90;;;;;;4963701;29;20027;-76
2022/04/30 08:04:17;;;;;;;7.78;6.32;;;15.60;99.90;;;;;;4951878;29;20035;-80
2022/04/30 08:06:43;;;;;;;8.75;5.80;;;15.80;99.90;;;;;;4945900;29;20027;-78
2022/04/30 08:09:09;;;;;;;7.20;5.97;;;16.10;99.90;;;;;;4957074;29;20031;-75
2022/04/30 08:11:41;;;;;;;9.20;6.82;;;16.10;99.90;;;;;;4954258;29;20055;-78
2022/04/30 08:14:07;;;;;;;7.43;6.00;;;16.10;99.90;;;;;;4955998;29;20035;-76
2022/04/30 08:16:32;;;;;;;10.45;6.40;;;16.20;99.90;;;;;;4974460;29;20050;-75
2022/04/30 08:18:58;;;;;;;9.23;6.85;;;16.00;99.90;;;;;;4975971;29;20087;-75
2022/04/30 08:21:24;;;;;;;8.57;6.57;;;15.90;99.90;;;;;;4976100;29;20047;-75
2022/04/30 08:23:50;;;;;;;9.32;6.93;;;16.00;99.90;;;;;;4975327;29;20031;-81
2022/04/30 08:26:16;;;;;;;9.02;7.15;;;16.00;99.90;;;;;;4976891;28;20035;-76
2022/04/30 08:28:41;;;;;;;11.07;6.85;;;15.80;99.90;;;;;;4976064;29;20062;-75
2022/04/30 08:31:08;;;;;;;9.35;7.22;;;15.90;99.90;;;;;;4976828;29;20020;-77
2022/04/30 08:33:33;;;;;;;8.52;6.40;;;15.90;99.90;;;;;;4976615;28;20020;-77
2022/04/30 08:35:59;;;;;;;7.90;6.88;;;15.90;99.90;;;;;;4978917;28;20078;-78
2022/04/30 08:38:25;;;;;;;10.48;7.05;;;15.60;99.90;;;;;;4981159;29;20038;-80
2022/04/30 08:40:51;;;;;;;8.57;7.50;;;15.70;99.90;;;;;;4980093;29;20003;-75
2022/04/30 08:43:19;;;;;;;11.90;7.20;;;15.80;99.90;;;;;;4980771;29;20007;-75
2022/04/30 08:45:45;;;;;;;11.25;6.85;;;15.70;99.90;;;;;;4980395;29;20034;-77
2022/04/30 08:48:13;;;;;;;11.38;7.30;;;15.30;99.90;;;;;;4980678;28;20030;-76
2022/04/30 08:50:41;;;;;;;12.02;7.35;;;14.90;99.90;;;;;;4981216;28;20034;-75
2022/04/30 08:53:07;;;;;;;8.20;7.20;;;14.80;99.90;;;;;;4980314;29;20014;-75
2022/04/30 08:55:33;;;;;;;9.02;6.88;;;15.40;99.90;;;;;;4973432;29;20027;-75
2022/04/30 08:57:59;;;;;;;11.20;7.70;;;15.90;99.90;;;;;;4978790;28;20046;-77
2022/04/30 09:00:25;;;;;;;10.15;7.50;;;16.20;99.90;;;;;;4980984;29;20031;-75
2022/04/30 09:02:59;;;;;;;12.05;7.22;;;16.50;99.90;;;;;;4978145;29;20026;-80
2022/04/30 09:05:38;;;;;;;9.85;7.15;;;16.20;99.90;;;;;;4980965;28;20019;-75
2022/04/30 09:08:05;;;;;;;13.85;7.60;;;15.90;99.90;;;;;;4981211;28;20035;-75
2022/04/30 09:10:36;;;;;;;11.40;7.78;;;15.70;99.90;;;;;;4981251;28;20034;-78
2022/04/30 09:13:08;;;;;;;11.15;7.68;;;15.70;99.90;;;;;;4981789;28;20046;-75
2022/04/30 09:16:35;;;;;;;8.98;7.57;;;16.00;99.90;;;;;;4980658;29;20034;-76
2022/04/30 09:19:09;;;;;;;8.23;7.10;;;16.30;99.90;;;;;;4959172;28;20055;-75
2022/04/30 09:21:50;;;;;;;11.10;7.55;;;16.10;99.90;;;;;;4980658;28;20248;-75
2022/04/30 09:24:16;;;;;;;9.98;7.38;;;16.00;99.90;;;;;;4980834;28;20055;-76
2022/04/30 09:26:43;;;;;;;11.05;6.78;;;16.00;99.90;;;;;;4981304;28;20115;-75
2022/04/30 09:29:22;;;;;;;12.73;7.63;;;16.30;99.90;;;;;;4980099;28;20031;-75
2022/04/30 09:31:50;;;;;;;8.65;7.07;;;16.40;99.90;;;;;;4978559;28;20039;-75
2022/04/30 09:39:45;;;;;;;11.18;8.63;;;16.30;99.90;;;;;;4981531;28;20037;-75
2022/04/30 09:42:11;;;;;;;10.95;8.13;;;15.90;99.90;;;;;;4980694;28;20085;-75
2022/04/30 09:44:40;;;;;;;11.25;8.55;;;16.10;99.90;;;;;;4981395;28;20035;-76
2022/04/30 09:47:07;;;;;;;10.05;7.50;;;16.10;99.90;;;;;;4981422;28;20061;-76
2022/04/30 09:55:05;;;;;;;8.93;7.20;;;16.40;99.90;;;;;;4981551;28;20066;-75
2022/04/30 09:57:38;;;;;;;14.75;8.77;;;16.20;99.90;;;;;;4980940;28;20031;-75
2022/04/30 10:00:08;;;;;;;9.68;8.15;;;16.30;99.90;;;;;;4980728;28;20011;-75
2022/04/30 10:02:35;;;;;;;10.15;7.93;;;16.40;99.90;;;;;;4980988;28;20027;-75
2022/04/30 10:05:03;;;;;;;11.43;8.18;;;16.60;99.90;;;;;;4981207;28;20004;-75
2022/04/30 10:07:30;;;;;;;10.52;8.55;;;16.70;99.90;;;;;;4978496;28;20106;-75
2022/04/30 10:09:58;;;;;;;10.15;7.90;;;17.10;99.90;;;;;;4973980;28;20031;-75
2022/04/30 10:12:31;;;;;;;13.77;8.13;;;17.10;98.00;;;;;;4972656;28;20044;-75
2022/04/30 10:15:00;;;;;;;10.23;7.47;;;16.20;99.90;;;;;;4966588;29;20271;-75
2022/04/30 10:17:28;;;;;;;10.45;7.57;;;16.40;97.30;;;;;;4968755;29;20047;-75
2022/04/30 10:20:12;;;;;;;11.55;7.95;;;16.80;99.90;;;;;;4971837;28;20020;-75
2022/04/30 10:22:49;;;;;;;9.73;7.22;;;16.80;97.00;;;;;;4969436;28;20619;-75
2022/04/30 10:25:14;;;;;;;10.63;7.78;;;17.10;97.70;;;;;;4951924;29;20511;-75
2022/04/30 10:27:45;;;;;;;9.93;7.47;;;17.40;96.40;;;;;;4959278;29;20055;-75
2022/04/30 10:30:24;;;;;;;10.18;6.70;;;17.70;90.40;;;;;;4970824;28;20039;-74
2022/04/30 10:33:07;;;;;;;9.13;7.03;;;17.50;93.70;;;;;;4978272;28;20043;-75
2022/04/30 10:36:32;;;;;;;10.05;7.15;;;17.10;83.80;;;;;;4980779;28;20020;-75
2022/04/30 10:39:18;;;;;;;22.83;7.85;;;17.40;96.80;;;;;;4964311;28;20051;-81
2022/04/30 10:41:48;;;;;;;10.25;7.72;;;17.70;98.10;;;;;;4969994;29;20015;-75
2022/04/30 10:44:14;;;;;;;11.57;8.35;;;17.90;89.30;;;;;;4978239;29;20038;-75
2022/04/30 10:46:48;;;;;;;9.82;8.35;;;17.70;84.00;;;;;;4977653;29;20024;-76
2022/04/30 10:49:14;;;;;;;9.48;7.35;;;17.90;94.10;;;;;;4978302;29;20039;-74
2022/04/30 10:51:42;;;;;;;12.63;7.43;;;18.00;80.30;;;;;;4978710;29;20050;-75
2022/04/30 10:54:18;;;;;;;8.73;6.25;;;17.90;79.20;;;;;;4976928;28;20016;-76
2022/04/30 10:56:45;;;;;;;9.77;7.15;;;17.80;75.50;;;;;;4976956;29;20027;-75
2022/04/30 10:59:24;;;;;;;10.27;7.88;;;17.60;80.10;;;;;;4975004;28;20034;-75
2022/04/30 11:02:13;;;;;;;8.98;6.80;;;17.70;77.30;;;;;;4977244;29;20007;-75
2022/04/30 11:04:43;;;;;;;9.60;6.85;;;18.10;75.20;;;;;;4978514;29;20011;-75
2022/04/30 11:07:09;;;;;;;9.77;6.88;;;18.60;73.40;;;;;;4977879;29;20024;-74
2022/04/30 11:09:46;;;;;;;9.05;6.07;;;18.20;72.50;;;;;;4964949;29;20031;-74
2022/04/30 11:12:15;;;;;;;6.97;5.82;;;18.20;74.00;;;;;;4967408;29;20030;-74
2022/04/30 11:14:47;;;;;;;8.55;6.20;;;18.70;73.60;;;;;;4964104;29;20027;-75
2022/04/30 11:17:13;;;;;;;8.75;6.43;;;18.70;72.20;;;;;;4964402;29;20035;-75
2022/04/30 11:19:43;;;;;;;9.52;6.35;;;18.10;75.80;;;;;;4962835;29;20023;-74
2022/04/30 11:22:10;;;;;;;11.68;7.07;;;18.10;75.00;;;;;;4964134;29;20110;-75
2022/04/30 11:24:38;;;;;;;10.65;6.30;;;18.00;78.90;;;;;;4960391;29;20078;-75
2022/04/30 11:27:08;;;;;;;6.65;5.95;;;18.90;71.90;;;;;;4954399;29;20031;-75
2022/04/30 11:29:35;;;;;;;7.22;6.18;;;19.30;68.50;;;;;;4958326;28;20032;-75
2022/04/30 11:32:02;;;;;;;8.30;6.70;;;18.70;67.50;;;;;;4960651;29;20042;-75
2022/04/30 11:34:28;;;;;;;9.65;5.88;;;19.80;70.50;;;;;;4960211;29;20034;-75
2022/04/30 11:36:56;;;;;;;9.80;6.50;;;18.90;73.00;;;;;;4960448;29;20031;-75
2022/04/30 11:39:22;;;;;;;10.98;7.57;;;19.30;71.60;;;;;;4960514;29;20019;-74
2022/04/30 11:41:50;;;;;;;9.25;6.35;;;18.40;73.30;;;;;;4956976;29;20073;-75
2022/04/30 11:44:19;;;;;;;10.90;6.75;;;18.30;74.70;;;;;;4961199;29;20027;-75
2022/04/30 11:46:47;;;;;;;12.95;6.40;;;17.80;73.70;;;;;;4961980;29;20031;-75
2022/04/30 11:49:15;;;;;;;11.45;7.03;;;17.90;76.20;;;;;;4957591;29;20342;-75
2022/04/30 11:51:42;;;;;;;12.60;7.65;;;18.90;74.30;;;;;;4959521;29;20023;-75
2022/04/30 11:54:09;;;;;;;11.15;6.68;;;19.10;71.70;;;;;;4960844;28;20231;-75
2022/04/30 11:56:36;;;;;;;10.40;6.93;;;19.40;70.30;;;;;;4960343;29;20050;-75
2022/04/30 11:59:03;;;;;;;8.70;7.00;;;19.40;70.40;;;;;;4959652;29;20038;-75
2022/04/30 12:01:35;;;;;;;9.80;6.80;;;19.60;72.90;;;;;;4962702;29;20019;-75
2022/04/30 12:04:05;;;;;;;8.07;6.15;;;19.90;68.00;;;;;;4970431;29;20019;-75
2022/04/30 12:06:31;;;;;;;7.53;6.85;;;19.40;68.70;;;;;;4966702;29;20023;-74
2022/04/30 12:08:58;;;;;;;10.57;7.28;;;17.80;71.70;;;;;;4970954;28;20050;-74
2022/04/30 12:11:24;;;;;;;10.00;5.97;;;17.70;79.40;;;;;;4970415;28;20046;-75
2022/04/30 12:14:01;;;;;;;8.98;6.40;;;17.40;81.20;;;;;;4967172;29;20095;-75
2022/04/30 12:16:36;;;;;;;10.18;6.93;;;16.90;85.00;;;;;;4971629;29;20028;-75
2022/04/30 12:24:42;;;;;;;10.35;7.57;;;16.40;99.90;;;;;;4958950;29;20232;-75
2022/04/30 12:27:10;;;;;;;13.65;8.15;;;16.30;99.90;;;;;;4964863;29;20476;-75
2022/04/30 12:29:37;;;;;;;12.45;7.18;;;16.00;99.90;;;;;;4955237;29;20087;-74
2022/04/30 12:32:07;;;;;;;20.30;8.10;;;15.80;99.90;;;;;;4951153;29;20095;-75
2022/04/30 12:34:41;;;;;;;10.48;7.57;;;15.40;99.90;;;;;;4950376;29;20027;-75
2022/04/30 12:37:08;;;;;;;14.13;8.73;;;15.10;99.90;;;;;;4949806;29;20091;-75
2022/04/30 12:39:34;;;;;;;15.85;8.98;;;14.70;99.90;;;;;;4957812;29;20032;-75
2022/04/30 12:42:00;;;;;;;15.07;9.45;;;14.70;99.90;;;;;;4948745;29;20063;-74
2022/04/30 12:44:36;;;;;;;10.18;7.55;;;14.70;99.90;;;;;;4949813;29;20063;-74
2022/04/30 12:47:01;;;;;;;9.88;7.55;;;14.60;99.90;;;;;;4950905;29;20031;-75
2022/04/30 12:49:27;;;;;;;14.23;8.32;;;14.60;99.90;;;;;;4946282;29;20055;-75
2022/04/30 12:51:53;;;;;;;15.85;8.57;;;14.70;99.90;;;;;;4960174;29;20051;-75
2022/04/30 12:54:19;;;;;;;13.50;8.50;;;14.70;99.90;;;;;;4946937;29;20023;-75
2022/04/30 12:56:46;;;;;;;14.90;9.77;;;14.60;99.90;;;;;;4950122;28;20507;-76
2022/04/30 12:59:12;;;;;;;16.08;9.75;;;14.40;99.90;;;;;;4954318;28;20054;-76
2022/04/30 13:01:40;;;;;;;15.02;10.55;;;14.10;99.90;;;;;;4963214;29;20035;-75
2022/04/30 13:04:06;;;;;;;17.45;10.90;;;14.00;99.90;;;;;;4967582;28;20042;-76
2022/04/30 13:06:32;;;;;;;22.30;10.60;;;13.90;99.90;;;;;;4966759;29;20019;-80
2022/04/30 13:14:27;;;;;;;23.58;12.32;;;13.40;99.90;;;;;;4964498;29;20027;-74
2022/04/30 13:16:53;;;;;;;22.33;13.82;;;13.30;99.90;;;;;;4949740;28;20039;-76
2022/04/30 13:19:19;;;;;;;21.50;12.40;;;13.20;99.90;;;;;;4943327;29;20662;-75
2022/04/30 13:21:48;;;;;;;19.35;11.60;;;13.30;99.90;;;;;;4940436;29;20813;-75
2022/04/30 13:24:15;;;;;;;19.67;11.15;;;13.40;99.90;;;;;;4955012;29;20043;-75
2022/04/30 13:26:41;;;;;;;17.15;10.18;;;13.00;99.90;;;;;;4941485;29;20067;-74
2022/04/30 13:29:10;;;;;;;20.10;10.43;;;13.00;99.90;;;;;;4938559;29;20031;-74
2022/04/30 13:31:37;;;;;;;15.85;8.77;;;13.00;99.90;;;;;;4937564;29;20027;-75
2022/04/30 13:34:03;;;;;;;12.90;8.82;;;13.00;99.90;;;;;;4937967;29;20047;-74
2022/04/30 13:36:31;;;;;;;14.65;8.35;;;13.00;99.90;;;;;;4945193;29;20481;-74
2022/04/30 13:38:56;;;;;;;13.02;8.45;;;12.90;99.90;;;;;;4947854;29;20031;-74
2022/04/30 13:41:22;;;;;;;11.75;8.15;;;12.90;99.90;;;;;;4946661;29;20043;-75